Lone Pine, CA (93545)

7:39 PM PDT on August 23, 2016 (GMT -0700)
Little Hollywood | | Change Station

Elev 3727 ft 36.60 °N, 118.06 °W | Updated 30 seconds ago

Clear
Clear
84.6 °F
Feels Like 82 °F
N
5.3
Wind Variable Wind from WSW
Gusts 20.7 mph

Today
High -- | Low -- °F
--% Chance of Precip.
Yesterday
High -- | Low -- °F
Precip. -- in
Pressure 29.99 in
Visibility 10.0 miles
Clouds Clear
Heat Index 82 °F
Dew Point 42 °F
Humidity 22%
Rainfall 0.00 in
Snow Depth Not available.
6:16 AM 7:32 PM
Waning Gibbous, 62% visible
METAR KBIH 240156Z AUTO 20007KT 10SM CLR 27/04 A3011 RMK AO2 RAE06 SLP156 P0000 T02720044
Pressure 29.99 in
Visibility 10.0 miles
Clouds Clear
Heat Index 82 °F
Dew Point 42 °F
Humidity 22%
Rainfall 0.00 in
Snow Depth Not available.
6:16 AM 7:32 PM
Waning Gibbous, 62% visible
METAR KBIH 240156Z AUTO 20007KT 10SM CLR 27/04 A3011 RMK AO2 RAE06 SLP156 P0000 T02720044

10-Day Weather Forecast

Almanac

Astronomy

Aug. 23, 2016 Rise Set
Actual Time
Civil Twilight
Nautical Twilight
Astronomical Twilight
Moon
Length of Visible Light
Length of Day
Tomorrow will be .
, % of the Moon is Illuminated

Today's Extremes

State Highs State Lows

Community

WunderPhotos

Upload Photos

1,934,528 photos uploaded!

WunderBlog® & News

Nearby

Air Quality

  Air Quality AQ Index Pollutant
Not available.

Snow Depth

Station Depth Elevation

Earthquake Activity

City Distance Mag. Time & Date
Minimum magnitude displayed is 2.5.

Coastal Water Temperatures

Place Temperature

Stations

Nearby Weather Stations

Station Location Temp. Windchill Dew Point Humidity Wind Precip. Elev Updated Type
                   

Watches & Warnings

There are currently no watches in effect.